Time;durP1;ratioP1;P1;durP2;ratioP2;P2;SDS_P1;SDS_P2;PMS_P1;PMS_P2;Temp;Humidity;BMP_temperature;BMP_pressure;BME280_temperature;BME280_humidity;BME280_pressure;Samples;Min_cycle;Max_cycle;Signal;HPM_P1;HPM_P2
2021/03/26 00:02:08;;;;;;;0.10;0.10;;;10.80;99.90;;;;;;5052352;28;20205;-84
2021/03/26 00:04:34;;;;;;;0.50;0.50;;;10.80;99.90;;;;;;5057915;28;20201;-84
2021/03/26 00:06:59;;;;;;;1.07;1.07;;;10.80;99.90;;;;;;5049754;28;20178;-83
2021/03/26 00:09:28;;;;;;;0.43;0.33;;;10.90;99.90;;;;;;5057492;28;20223;-85
2021/03/26 00:11:59;;;;;;;2.37;0.60;;;10.90;99.90;;;;;;5060866;28;20190;-85
2021/03/26 00:14:25;;;;;;;1.53;0.87;;;10.90;99.90;;;;;;5049393;28;20178;-84
2021/03/26 00:16:50;;;;;;;0.87;0.87;;;10.80;99.90;;;;;;5038608;28;20610;-85
2021/03/26 00:19:16;;;;;;;0.20;0.20;;;10.80;99.90;;;;;;5041213;28;20233;-83
2021/03/26 00:21:42;;;;;;;1.20;0.53;;;10.80;99.90;;;;;;5048489;28;20686;-83
2021/03/26 00:24:09;;;;;;;1.37;0.70;;;10.70;99.90;;;;;;5041278;28;20190;-85
2021/03/26 00:26:34;;;;;;;2.67;0.73;;;10.70;99.90;;;;;;5053273;28;20222;-84
2021/03/26 00:29:00;;;;;;;0.67;0.63;;;10.60;99.90;;;;;;5052982;28;20185;-85
2021/03/26 00:31:25;;;;;;;0.43;0.40;;;10.60;99.90;;;;;;5059184;28;20182;-84
2021/03/26 00:33:51;;;;;;;2.10;1.73;;;10.50;99.90;;;;;;5041439;28;20183;-84
2021/03/26 00:36:17;;;;;;;0.73;0.60;;;10.40;99.90;;;;;;5055415;28;20189;-83
2021/03/26 00:38:43;;;;;;;0.67;0.67;;;10.40;99.90;;;;;;5043032;28;20285;-85
2021/03/26 00:41:08;;;;;;;2.57;1.07;;;10.40;99.90;;;;;;5052754;28;20228;-85
2021/03/26 00:43:34;;;;;;;0.80;0.60;;;10.30;99.90;;;;;;5052388;28;20649;-83
2021/03/26 00:46:00;;;;;;;3.57;2.57;;;10.30;99.90;;;;;;5042126;28;20178;-83
2021/03/26 00:48:26;;;;;;;1.63;1.20;;;10.30;99.90;;;;;;5051576;28;20705;-84
2021/03/26 00:50:58;;;;;;;1.57;1.47;;;10.30;99.90;;;;;;5049029;28;20205;-85
2021/03/26 00:53:33;;;;;;;2.83;0.93;;;10.30;99.90;;;;;;5059517;28;20672;-84
2021/03/26 00:55:59;;;;;;;0.20;0.20;;;10.40;99.90;;;;;;5060282;28;20192;-84
2021/03/26 00:58:25;;;;;;;0.13;0.13;;;10.40;99.90;;;;;;5044685;28;20703;-84
2021/03/26 01:00:52;;;;;;;2.90;0.30;;;10.50;99.90;;;;;;5042540;28;20212;-84
2021/03/26 01:03:19;;;;;;;0.40;0.33;;;10.50;99.90;;;;;;5055651;28;20217;-84
2021/03/26 01:05:50;;;;;;;1.50;0.40;;;10.60;99.90;;;;;;5052346;28;20174;-84
2021/03/26 01:08:16;;;;;;;0.80;0.43;;;10.60;99.90;;;;;;5059929;28;20200;-85
2021/03/26 01:10:47;;;;;;;0.43;0.43;;;10.60;99.90;;;;;;5056743;28;20216;-84
2021/03/26 01:13:16;;;;;;;0.87;0.47;;;10.60;99.90;;;;;;5057165;28;20198;-83
2021/03/26 01:15:43;;;;;;;0.43;0.43;;;10.50;99.90;;;;;;5057458;28;20185;-84
2021/03/26 01:18:19;;;;;;;0.60;0.60;;;10.40;99.90;;;;;;5042122;28;20174;-83
2021/03/26 01:20:44;;;;;;;1.20;0.60;;;10.40;99.90;;;;;;5052817;28;20237;-84
2021/03/26 01:23:10;;;;;;;1.73;1.00;;;10.40;99.90;;;;;;5045422;28;20189;-84
2021/03/26 01:25:38;;;;;;;0.90;0.73;;;10.30;99.90;;;;;;5043732;28;20189;-84
2021/03/26 01:28:06;;;;;;;0.37;0.37;;;10.30;99.90;;;;;;5048015;28;20174;-85
2021/03/26 01:30:33;;;;;;;3.50;0.80;;;10.30;99.90;;;;;;5046845;28;20217;-84
2021/03/26 01:33:00;;;;;;;0.30;0.30;;;10.30;99.90;;;;;;5050957;28;20567;-83
2021/03/26 01:35:27;;;;;;;1.13;0.80;;;10.30;99.90;;;;;;5072067;28;20192;-83
2021/03/26 01:37:53;;;;;;;0.57;0.57;;;10.20;99.90;;;;;;5049838;28;20190;-85
2021/03/26 01:40:26;;;;;;;0.97;0.97;;;10.20;99.90;;;;;;5061314;28;20198;-83
2021/03/26 01:43:01;;;;;;;1.07;0.67;;;10.20;99.90;;;;;;5058516;28;20193;-83
2021/03/26 01:45:26;;;;;;;0.57;0.30;;;10.20;99.90;;;;;;5056719;28;20188;-84
2021/03/26 01:47:55;;;;;;;1.13;0.53;;;10.20;99.90;;;;;;5060932;28;20181;-83
2021/03/26 01:50:28;;;;;;;0.37;0.37;;;10.20;99.90;;;;;;5050336;28;20198;-83
2021/03/26 01:52:54;;;;;;;0.70;0.70;;;10.20;99.90;;;;;;5054909;28;20194;-83
2021/03/26 01:55:28;;;;;;;0.77;0.60;;;10.30;99.90;;;;;;5060586;28;20189;-84
2021/03/26 01:57:53;;;;;;;0.20;0.20;;;10.30;99.90;;;;;;5053863;28;20272;-84
2021/03/26 02:00:25;;;;;;;0.50;0.50;;;10.30;99.90;;;;;;5050359;28;20235;-84
2021/03/26 02:02:52;;;;;;;3.40;0.40;;;10.40;99.90;;;;;;5052716;28;20239;-84
2021/03/26 02:05:23;;;;;;;0.33;0.23;;;10.40;99.90;;;;;;5053912;28;20193;-84
2021/03/26 02:07:49;;;;;;;0.40;0.30;;;10.40;99.90;;;;;;5047142;28;20268;-83
2021/03/26 02:10:15;;;;;;;0.43;0.43;;;10.30;99.90;;;;;;5054390;28;20206;-84
2021/03/26 02:12:42;;;;;;;0.83;0.50;;;10.30;99.90;;;;;;5057704;28;20195;-83
2021/03/26 02:15:33;;;;;;;2.10;0.80;;;10.40;99.90;;;;;;5053652;28;20859;-85
2021/03/26 02:17:59;;;;;;;2.63;1.30;;;10.40;99.90;;;;;;5048283;28;20185;-85
2021/03/26 02:20:37;;;;;;;0.63;0.63;;;10.40;99.90;;;;;;5056918;28;20252;-85
2021/03/26 02:23:13;;;;;;;1.60;0.83;;;10.40;99.90;;;;;;5041075;28;20202;-84
2021/03/26 02:25:40;;;;;;;0.30;0.30;;;10.30;99.90;;;;;;5052477;28;20261;-84
2021/03/26 02:28:06;;;;;;;0.47;0.43;;;10.40;99.90;;;;;;5041679;28;20189;-84
2021/03/26 02:30:35;;;;;;;0.50;0.50;;;10.30;99.90;;;;;;5053405;28;20194;-83
2021/03/26 02:33:02;;;;;;;0.33;0.33;;;10.20;99.90;;;;;;5052543;28;20241;-84
2021/03/26 02:35:38;;;;;;;0.37;0.37;;;10.20;99.90;;;;;;5044405;28;20183;-83
2021/03/26 02:38:07;;;;;;;0.30;0.27;;;10.20;99.90;;;;;;5054151;28;20189;-83
2021/03/26 02:40:57;;;;;;;0.60;0.60;;;10.10;99.90;;;;;;5054598;28;20201;-84
2021/03/26 02:43:28;;;;;;;0.97;0.47;;;10.00;99.90;;;;;;5043947;28;20189;-84
2021/03/26 02:46:15;;;;;;;0.83;0.40;;;9.90;99.90;;;;;;5046647;28;20592;-84
2021/03/26 02:48:42;;;;;;;0.10;0.10;;;9.90;99.90;;;;;;5042001;28;20186;-84
2021/03/26 02:51:23;;;;;;;0.63;0.20;;;9.90;99.90;;;;;;5055014;28;20205;-84
2021/03/26 02:54:31;;;;;;;0.70;0.37;;;9.90;99.90;;;;;;5045045;28;20182;-83
2021/03/26 02:57:05;;;;;;;0.83;0.83;;;10.00;99.90;;;;;;5043859;28;20196;-84
2021/03/26 02:59:40;;;;;;;0.63;0.53;;;10.00;99.90;;;;;;5053737;28;20212;-84
2021/03/26 03:02:07;;;;;;;0.43;0.43;;;10.00;99.90;;;;;;5050508;28;20216;-86
2021/03/26 03:04:40;;;;;;;0.10;0.10;;;9.90;99.90;;;;;;5045010;28;20438;-84
2021/03/26 03:07:09;;;;;;;0.77;0.50;;;10.00;99.90;;;;;;5049684;28;20189;-83
2021/03/26 03:09:37;;;;;;;0.33;0.33;;;10.00;99.90;;;;;;5055367;28;20204;-83
2021/03/26 03:12:19;;;;;;;0.33;0.33;;;10.00;99.90;;;;;;5045549;28;20229;-84
2021/03/26 03:14:53;;;;;;;0.83;0.30;;;9.90;99.90;;;;;;5052814;28;20190;-85
2021/03/26 03:17:38;;;;;;;1.40;0.57;;;9.90;99.90;;;;;;5052313;28;20195;-85
2021/03/26 03:20:24;;;;;;;0.47;0.30;;;9.60;99.90;;;;;;5051434;28;20224;-85
2021/03/26 03:23:15;;;;;;;0.17;0.17;;;9.60;99.90;;;;;;5048509;28;20204;-83
2021/03/26 03:25:41;;;;;;;0.70;0.60;;;9.60;99.90;;;;;;5049037;28;20189;-83
2021/03/26 03:28:25;;;;;;;0.37;0.37;;;9.60;99.90;;;;;;5054361;28;20194;-84
2021/03/26 03:30:59;;;;;;;0.20;0.20;;;9.70;99.90;;;;;;5043097;28;20194;-86
2021/03/26 03:33:52;;;;;;;0.40;0.30;;;9.70;99.90;;;;;;5053284;28;20177;-84
2021/03/26 03:36:22;;;;;;;0.17;0.17;;;9.70;99.90;;;;;;5045142;28;20185;-84
2021/03/26 03:39:12;;;;;;;0.10;0.10;;;9.70;99.90;;;;;;5043340;28;20341;-86
2021/03/26 03:42:05;;;;;;;0.60;0.30;;;9.60;99.90;;;;;;5055615;28;20222;-86
2021/03/26 03:44:56;;;;;;;0.10;0.10;;;9.60;99.90;;;;;;5054239;28;20182;-84
2021/03/26 03:47:27;;;;;;;0.30;0.20;;;9.70;99.90;;;;;;5052189;28;20183;-84
2021/03/26 03:50:13;;;;;;;0.67;0.47;;;9.70;99.90;;;;;;5053622;28;20218;-85
2021/03/26 03:52:47;;;;;;;0.60;0.43;;;9.50;99.90;;;;;;5046831;28;20216;-83
2021/03/26 03:55:48;;;;;;;0.60;0.23;;;9.60;99.90;;;;;;5055450;28;20196;-85
2021/03/26 03:58:33;;;;;;;0.27;0.27;;;9.70;99.90;;;;;;5020843;28;20265;-85
2021/03/26 04:01:08;;;;;;;0.30;0.30;;;9.70;99.90;;;;;;5057644;28;20205;-87
2021/03/26 04:03:52;;;;;;;0.80;0.70;;;9.70;99.90;;;;;;5049476;28;20212;-86
2021/03/26 04:06:28;;;;;;;0.27;0.27;;;9.70;99.90;;;;;;5070731;28;20213;-83
2021/03/26 04:08:55;;;;;;;1.40;0.67;;;9.60;99.90;;;;;;5063448;28;20181;-83
2021/03/26 04:11:55;;;;;;;0.30;0.30;;;9.50;99.90;;;;;;5048306;28;20177;-83
2021/03/26 04:14:39;;;;;;;0.37;0.37;;;9.50;99.90;;;;;;5054927;28;20201;-84
2021/03/26 04:17:13;;;;;;;0.17;0.17;;;9.30;99.90;;;;;;5041562;28;20612;-88
2021/03/26 04:19:47;;;;;;;0.33;0.33;;;9.30;99.90;;;;;;5048442;28;20204;-84
2021/03/26 04:22:19;;;;;;;0.30;0.27;;;9.20;99.90;;;;;;5053029;28;20213;-84
2021/03/26 04:24:53;;;;;;;0.10;0.10;;;9.10;99.90;;;;;;5053352;28;20720;-85
2021/03/26 04:27:39;;;;;;;0.13;0.13;;;8.90;99.90;;;;;;5056604;28;20170;-86
2021/03/26 04:30:14;;;;;;;0.50;0.50;;;8.80;99.90;;;;;;5050311;28;20197;-84
2021/03/26 04:32:40;;;;;;;0.10;0.10;;;8.90;99.90;;;;;;5044638;28;20180;-83
2021/03/26 04:35:10;;;;;;;0.60;0.20;;;8.90;99.90;;;;;;5046910;28;20186;-83
2021/03/26 04:38:15;;;;;;;0.20;0.20;;;9.00;99.90;;;;;;5057427;28;20195;-84
2021/03/26 04:40:47;;;;;;;0.60;0.60;;;9.00;99.90;;;;;;5060580;28;20209;-83
2021/03/26 04:43:24;;;;;;;0.20;0.20;;;9.00;99.90;;;;;;5064066;28;20183;-85
2021/03/26 04:46:06;;;;;;;0.93;0.30;;;9.00;99.90;;;;;;5064460;28;20181;-85
2021/03/26 04:48:41;;;;;;;0.23;0.23;;;8.90;99.90;;;;;;5063594;28;20195;-83
2021/03/26 04:51:37;;;;;;;0.03;0.03;;;8.80;99.90;;;;;;5056269;28;20197;-86
2021/03/26 04:54:17;;;;;;;0.60;0.50;;;8.70;99.90;;;;;;5060355;28;20171;-86
2021/03/26 04:56:52;;;;;;;0.30;0.30;;;8.70;99.90;;;;;;5066778;28;20181;-84
2021/03/26 04:59:23;;;;;;;0.57;0.20;;;8.60;99.90;;;;;;5062411;28;20210;-87
2021/03/26 05:01:52;;;;;;;0.43;0.30;;;8.60;99.90;;;;;;5053036;28;20217;-88
2021/03/26 05:04:28;;;;;;;0.90;0.90;;;8.40;99.90;;;;;;5045894;28;20206;-83
2021/03/26 05:06:59;;;;;;;2.80;0.47;;;8.20;99.90;;;;;;5049455;28;20271;-83
2021/03/26 05:09:27;;;;;;;0.30;0.27;;;7.90;99.90;;;;;;5059430;28;20288;-83
2021/03/26 05:11:58;;;;;;;0.93;0.77;;;7.70;99.90;;;;;;5055670;28;20188;-83
2021/03/26 05:14:29;;;;;;;0.10;0.10;;;7.50;99.90;;;;;;5048737;28;20200;-83
2021/03/26 05:17:17;;;;;;;0.70;0.37;;;7.60;99.90;;;;;;5049543;28;20190;-86
2021/03/26 05:20:06;;;;;;;0.10;0.10;;;7.70;99.90;;;;;;5055726;28;20601;-83
2021/03/26 05:23:15;;;;;;;0.17;0.17;;;7.80;99.90;;;;;;5054614;28;20200;-83
2021/03/26 05:25:44;;;;;;;0.57;0.57;;;7.80;99.90;;;;;;5066672;28;20204;-86
2021/03/26 05:28:23;;;;;;;0.73;0.40;;;7.70;99.90;;;;;;5071972;28;20268;-85
2021/03/26 05:30:50;;;;;;;0.20;0.20;;;7.40;99.90;;;;;;5056552;28;20194;-87
2021/03/26 05:33:46;;;;;;;0.23;0.23;;;7.20;99.90;;;;;;5069260;28;20196;-87
2021/03/26 05:36:22;;;;;;;0.20;0.20;;;7.10;99.90;;;;;;5074368;28;20197;-85
2021/03/26 05:38:52;;;;;;;0.07;0.07;;;7.00;99.90;;;;;;5055786;28;20267;-84
2021/03/26 05:41:30;;;;;;;0.30;0.30;;;7.00;99.90;;;;;;5059263;28;20314;-83
2021/03/26 05:44:19;;;;;;;1.23;1.20;;;7.10;99.90;;;;;;5051253;28;20180;-83
2021/03/26 05:47:27;;;;;;;0.20;0.20;;;7.00;99.90;;;;;;5055494;28;20180;-84
2021/03/26 05:50:01;;;;;;;0.73;0.50;;;7.00;99.90;;;;;;5064607;28;20204;-84
2021/03/26 05:52:56;;;;;;;0.70;0.70;;;7.00;99.90;;;;;;5060283;28;20180;-85
2021/03/26 05:55:25;;;;;;;2.13;0.43;;;7.10;99.90;;;;;;5055438;28;20190;-83
2021/03/26 05:58:16;;;;;;;1.50;0.30;;;7.20;99.90;;;;;;5053473;28;20197;-84
2021/03/26 06:01:02;;;;;;;0.37;0.37;;;7.30;99.90;;;;;;5060598;28;20211;-84
2021/03/26 06:04:02;;;;;;;0.63;0.40;;;7.50;99.90;;;;;;5051030;28;20618;-83
2021/03/26 06:07:02;;;;;;;5.20;0.57;;;7.60;99.90;;;;;;5062716;28;20171;-86
2021/03/26 06:09:47;;;;;;;0.40;0.40;;;7.80;99.90;;;;;;5067713;28;20281;-86
2021/03/26 06:12:40;;;;;;;1.20;0.50;;;7.80;99.90;;;;;;5066398;28;20255;-87
2021/03/26 06:15:40;;;;;;;0.43;0.43;;;7.80;99.90;;;;;;5060287;28;20195;-87
2021/03/26 06:18:56;;;;;;;0.40;0.37;;;7.80;99.90;;;;;;5055050;28;20183;-86
2021/03/26 06:21:37;;;;;;;0.47;0.47;;;7.90;99.90;;;;;;5067254;28;20250;-84
2021/03/26 06:24:41;;;;;;;0.63;0.37;;;8.10;99.90;;;;;;5053634;28;20203;-83
2021/03/26 06:27:35;;;;;;;0.10;0.10;;;8.20;99.90;;;;;;5063709;28;20185;-89
2021/03/26 06:30:19;;;;;;;0.37;0.37;;;8.20;99.90;;;;;;5072808;28;20414;-88
2021/03/26 06:33:03;;;;;;;0.63;0.63;;;8.20;99.90;;;;;;5063655;28;20219;-89
2021/03/26 06:36:02;;;;;;;0.53;0.23;;;8.30;99.90;;;;;;5068704;28;20189;-87
2021/03/26 06:38:54;;;;;;;0.50;0.50;;;8.20;99.90;;;;;;5060809;28;20165;-85
2021/03/26 06:42:09;;;;;;;1.03;1.03;;;8.20;99.90;;;;;;5067747;28;20208;-87
2021/03/26 06:44:44;;;;;;;0.50;0.50;;;8.30;99.90;;;;;;5061479;28;20180;-84
2021/03/26 06:47:23;;;;;;;1.53;0.50;;;8.40;99.90;;;;;;5059188;28;20157;-88
2021/03/26 06:50:15;;;;;;;0.10;0.10;;;8.40;99.90;;;;;;5061847;28;20209;-85
2021/03/26 06:53:24;;;;;;;0.40;0.30;;;8.50;99.90;;;;;;5060240;28;20181;-86
2021/03/26 06:56:30;;;;;;;0.40;0.40;;;8.70;99.90;;;;;;5056710;28;20202;-84
2021/03/26 06:59:34;;;;;;;1.03;1.03;;;9.10;99.90;;;;;;5069668;28;20205;-86
2021/03/26 07:02:14;;;;;;;0.30;0.30;;;9.40;99.90;;;;;;5063930;28;20221;-85
2021/03/26 07:05:12;;;;;;;0.90;0.50;;;9.90;99.90;;;;;;5062302;28;20188;-88
2021/03/26 07:08:04;;;;;;;1.53;1.43;;;9.90;99.90;;;;;;5048333;28;20272;-86
2021/03/26 07:10:48;;;;;;;0.10;0.10;;;9.80;99.90;;;;;;5064047;28;20229;-85
2021/03/26 07:13:35;;;;;;;0.47;0.47;;;10.00;99.90;;;;;;5056584;28;20178;-85
2021/03/26 07:16:40;;;;;;;0.50;0.50;;;10.10;99.90;;;;;;5056013;28;20182;-86
2021/03/26 07:19:18;;;;;;;0.60;0.60;;;9.80;99.90;;;;;;5056950;28;20284;-86
2021/03/26 07:22:23;;;;;;;1.13;0.77;;;9.80;99.90;;;;;;5053280;28;20245;-84
2021/03/26 07:25:00;;;;;;;0.47;0.47;;;10.30;99.90;;;;;;5051446;28;20209;-85
2021/03/26 07:27:44;;;;;;;0.50;0.43;;;10.10;99.90;;;;;;5053478;28;20187;-83
2021/03/26 07:30:31;;;;;;;0.50;0.50;;;10.10;99.90;;;;;;5053334;28;20210;-84
2021/03/26 07:33:14;;;;;;;0.40;0.40;;;10.10;99.90;;;;;;5051678;28;20254;-83
2021/03/26 07:35:58;;;;;;;0.63;0.63;;;10.40;99.90;;;;;;5039363;28;20197;-84
2021/03/26 07:39:19;;;;;;;0.17;0.17;;;10.50;99.90;;;;;;5040756;28;20190;-84
2021/03/26 07:41:58;;;;;;;0.30;0.30;;;10.70;99.90;;;;;;5029271;28;20212;-83
2021/03/26 07:44:50;;;;;;;0.50;0.50;;;11.10;99.90;;;;;;5048607;28;20195;-85
2021/03/26 07:47:47;;;;;;;0.23;0.23;;;11.50;99.90;;;;;;5037628;28;20179;-82
2021/03/26 07:50:41;;;;;;;0.47;0.47;;;12.20;99.90;;;;;;5036668;28;20213;-83
2021/03/26 07:53:18;;;;;;;2.20;0.70;;;12.50;99.90;;;;;;5048075;28;20189;-84
2021/03/26 07:56:06;;;;;;;0.27;0.27;;;12.00;99.90;;;;;;5041791;28;20182;-82
2021/03/26 07:59:03;;;;;;;0.73;0.50;;;11.90;99.90;;;;;;5047175;28;20181;-83
2021/03/26 08:01:49;;;;;;;0.77;0.50;;;11.80;99.90;;;;;;5037270;28;20206;-82
2021/03/26 08:04:39;;;;;;;0.80;0.77;;;11.60;99.90;;;;;;5047480;28;20209;-85
2021/03/26 08:07:26;;;;;;;0.53;0.50;;;12.10;99.90;;;;;;5037167;28;20182;-85
2021/03/26 08:10:31;;;;;;;0.50;0.50;;;11.90;99.90;;;;;;5045921;28;20197;-84
2021/03/26 08:13:11;;;;;;;0.87;0.53;;;12.30;99.90;;;;;;5034284;28;20191;-83
2021/03/26 08:16:02;;;;;;;0.57;0.57;;;12.70;99.90;;;;;;5046602;28;20327;-83
2021/03/26 08:19:03;;;;;;;2.70;0.77;;;13.10;99.90;;;;;;5035721;28;20182;-84
2021/03/26 08:21:34;;;;;;;0.80;0.80;;;13.10;99.90;;;;;;5043749;28;20211;-83
2021/03/26 08:24:42;;;;;;;2.43;0.73;;;12.50;99.90;;;;;;5037808;28;20187;-83
2021/03/26 08:27:21;;;;;;;1.07;0.70;;;12.20;99.90;;;;;;5043091;28;20181;-83
2021/03/26 08:30:38;;;;;;;1.20;0.57;;;12.00;99.90;;;;;;5035753;28;20216;-83
2021/03/26 08:33:28;;;;;;;1.73;1.27;;;12.40;99.90;;;;;;5041694;28;20538;-81
2021/03/26 08:36:30;;;;;;;1.23;0.80;;;12.20;99.90;;;;;;5042447;28;20726;-81
2021/03/26 08:39:33;;;;;;;1.03;0.57;;;12.30;99.90;;;;;;5047523;28;20556;-80
2021/03/26 08:42:01;;;;;;;0.80;0.50;;;12.70;99.90;;;;;;5035054;28;20214;-80
2021/03/26 08:44:29;;;;;;;0.80;0.50;;;13.10;99.90;;;;;;5050202;28;20178;-80
2021/03/26 08:46:57;;;;;;;1.00;0.60;;;13.40;99.90;;;;;;5054135;28;20179;-81
2021/03/26 08:49:22;;;;;;;0.40;0.40;;;13.60;99.90;;;;;;5055980;28;20203;-80
2021/03/26 08:52:15;;;;;;;1.20;0.77;;;13.70;99.90;;;;;;5058277;28;20185;-81
2021/03/26 08:55:02;;;;;;;1.27;1.00;;;13.80;99.90;;;;;;5043355;28;20196;-80
2021/03/26 08:57:47;;;;;;;1.00;0.43;;;14.00;99.90;;;;;;5051043;28;20184;-80
2021/03/26 09:00:33;;;;;;;0.77;0.73;;;14.10;99.90;;;;;;5054804;28;20215;-81
2021/03/26 09:03:27;;;;;;;0.50;0.50;;;14.10;99.90;;;;;;5036022;28;20205;-80
2021/03/26 09:06:23;;;;;;;4.23;1.23;;;14.10;99.90;;;;;;5046857;28;20204;-80
2021/03/26 09:09:01;;;;;;;0.80;0.50;;;13.90;99.90;;;;;;5038067;28;20181;-82
2021/03/26 09:11:52;;;;;;;2.90;1.00;;;13.90;99.90;;;;;;5038941;28;20200;-80
2021/03/26 09:14:36;;;;;;;0.77;0.50;;;13.80;99.90;;;;;;5052411;28;20189;-80
2021/03/26 09:17:29;;;;;;;1.33;1.10;;;13.80;99.90;;;;;;5057737;28;20188;-79
2021/03/26 09:20:07;;;;;;;1.53;1.43;;;14.00;99.90;;;;;;5060311;28;20211;-80
2021/03/26 09:22:40;;;;;;;0.70;0.70;;;14.20;99.90;;;;;;5044024;28;20222;-80
2021/03/26 09:25:17;;;;;;;0.53;0.53;;;14.40;99.90;;;;;;5048292;28;20548;-80
2021/03/26 09:28:05;;;;;;;0.80;0.57;;;14.60;99.90;;;;;;5051617;28;20183;-80
2021/03/26 09:30:34;;;;;;;3.53;1.70;;;14.90;99.90;;;;;;5048287;28;20214;-80
2021/03/26 09:33:13;;;;;;;2.90;0.80;;;14.90;99.90;;;;;;5046122;28;20188;-81
2021/03/26 09:35:45;;;;;;;1.07;1.07;;;15.00;99.90;;;;;;5045224;28;20227;-81
2021/03/26 09:38:13;;;;;;;0.60;0.60;;;15.10;99.90;;;;;;5045284;28;20208;-80
2021/03/26 09:40:50;;;;;;;1.23;0.90;;;15.30;99.90;;;;;;5042196;28;20689;-81
2021/03/26 09:43:18;;;;;;;0.80;0.80;;;15.40;99.90;;;;;;5039722;28;20629;-81
2021/03/26 09:45:50;;;;;;;1.47;1.27;;;15.50;99.90;;;;;;5049777;28;20185;-80
2021/03/26 09:48:34;;;;;;;2.20;1.13;;;15.60;99.90;;;;;;5054886;28;20185;-83
2021/03/26 09:51:12;;;;;;;1.97;0.90;;;15.60;99.90;;;;;;5037957;28;20715;-80
2021/03/26 09:53:40;;;;;;;7.53;2.03;;;15.60;99.90;;;;;;5038423;28;20188;-81
2021/03/26 09:56:24;;;;;;;1.60;1.23;;;15.70;99.90;;;;;;5042919;28;20268;-81
2021/03/26 09:58:59;;;;;;;2.47;1.40;;;15.80;99.90;;;;;;5049601;28;20667;-80
2021/03/26 10:01:43;;;;;;;2.00;1.73;;;15.90;99.90;;;;;;5037775;28;20213;-80
2021/03/26 10:04:17;;;;;;;3.13;1.00;;;15.90;99.90;;;;;;5036028;28;20647;-81
2021/03/26 10:06:56;;;;;;;1.43;1.20;;;16.10;99.90;;;;;;5031376;28;20200;-80
2021/03/26 10:09:43;;;;;;;2.17;1.57;;;16.20;99.90;;;;;;5052369;28;20208;-81
2021/03/26 10:12:19;;;;;;;1.27;1.13;;;16.40;99.90;;;;;;5034625;28;20190;-81
2021/03/26 10:15:04;;;;;;;1.03;1.00;;;16.60;99.90;;;;;;5033985;28;20284;-81
2021/03/26 10:17:32;;;;;;;1.43;1.30;;;16.80;99.90;;;;;;5039312;28;20186;-81
2021/03/26 10:20:11;;;;;;;2.93;1.40;;;17.00;99.90;;;;;;5030900;28;21554;-81
2021/03/26 10:22:40;;;;;;;4.13;1.27;;;16.80;99.90;;;;;;5038461;28;20295;-81
2021/03/26 10:25:26;;;;;;;1.90;0.83;;;16.70;99.90;;;;;;5041661;28;20207;-81
2021/03/26 10:28:43;;;;;;;0.30;0.30;;;16.70;99.90;;;;;;5044958;28;20649;-81
2021/03/26 10:31:12;;;;;;;1.90;0.53;;;17.00;99.90;;;;;;5042108;28;20198;-80
2021/03/26 10:33:59;;;;;;;2.37;0.73;;;17.50;99.90;;;;;;5033209;28;20210;-81
2021/03/26 10:36:37;;;;;;;3.60;1.50;;;17.70;99.90;;;;;;5041505;28;20262;-81
2021/03/26 10:39:02;;;;;;;2.80;1.63;;;17.80;99.90;;;;;;5032322;28;20581;-81
2021/03/26 10:41:41;;;;;;;1.27;1.03;;;17.60;99.90;;;;;;5031423;28;20327;-81
2021/03/26 10:44:18;;;;;;;2.17;1.00;;;17.80;99.90;;;;;;5042029;28;20194;-81
2021/03/26 10:46:48;;;;;;;1.30;0.97;;;17.80;99.90;;;;;;5032887;28;20699;-81
2021/03/26 10:49:19;;;;;;;0.47;0.47;;;17.90;99.90;;;;;;5037053;28;20198;-81
2021/03/26 10:51:55;;;;;;;3.50;2.30;;;18.00;99.90;;;;;;5036625;28;20202;-81
2021/03/26 10:54:27;;;;;;;1.73;1.40;;;17.70;99.90;;;;;;5034854;28;20661;-81
2021/03/26 10:57:20;;;;;;;2.53;0.87;;;17.80;99.90;;;;;;5048080;28;20186;-81
2021/03/26 10:59:51;;;;;;;2.73;1.40;;;18.00;99.90;;;;;;5046646;28;20213;-81
2021/03/26 11:02:19;;;;;;;4.93;1.90;;;18.20;99.90;;;;;;5034543;28;20206;-81
2021/03/26 11:05:14;;;;;;;0.70;0.70;;;18.30;99.90;;;;;;5031369;28;20190;-81
2021/03/26 11:07:46;;;;;;;1.20;1.10;;;18.40;99.90;;;;;;5040943;28;20199;-81
2021/03/26 11:10:18;;;;;;;1.33;0.70;;;18.50;99.90;;;;;;5033243;28;20191;-81
2021/03/26 11:13:07;;;;;;;0.60;0.60;;;18.90;99.90;;;;;;5047415;28;20193;-81
2021/03/26 11:15:37;;;;;;;2.07;1.53;;;19.40;99.90;;;;;;5046807;28;20204;-81
2021/03/26 11:18:11;;;;;;;1.10;1.00;;;19.20;99.90;;;;;;5043549;28;20187;-80
2021/03/26 11:20:48;;;;;;;0.83;0.83;;;18.80;99.90;;;;;;5046525;28;20836;-81
2021/03/26 11:23:25;;;;;;;1.37;1.33;;;18.70;99.90;;;;;;5031422;28;20705;-81
2021/03/26 11:26:06;;;;;;;2.20;1.10;;;18.50;99.90;;;;;;5037008;28;20229;-81
2021/03/26 11:28:47;;;;;;;1.97;1.33;;;18.20;99.90;;;;;;5029764;28;20269;-81
2021/03/26 11:31:52;;;;;;;1.23;1.13;;;17.80;99.90;;;;;;5042095;28;20209;-80
2021/03/26 11:34:22;;;;;;;1.10;1.03;;;17.80;99.90;;;;;;5040914;28;20711;-81
2021/03/26 11:36:47;;;;;;;1.23;1.03;;;18.00;99.90;;;;;;5046163;28;20753;-81
2021/03/26 11:39:22;;;;;;;1.40;1.23;;;18.10;99.90;;;;;;5045019;28;20414;-81
2021/03/26 11:41:57;;;;;;;1.13;1.07;;;18.40;99.90;;;;;;5042863;28;20296;-81
2021/03/26 11:44:32;;;;;;;0.40;0.40;;;18.80;99.90;;;;;;5046280;28;20593;-81
2021/03/26 11:47:23;;;;;;;1.00;1.00;;;19.20;99.90;;;;;;5033971;28;20182;-81
2021/03/26 11:50:02;;;;;;;0.23;0.23;;;19.50;99.90;;;;;;5039516;28;20412;-81
2021/03/26 11:52:38;;;;;;;0.60;0.60;;;19.60;99.90;;;;;;5039510;28;20235;-80
2021/03/26 11:55:07;;;;;;;0.67;0.27;;;19.50;99.90;;;;;;5034954;28;20208;-81
2021/03/26 11:57:57;;;;;;;0.97;0.53;;;19.20;99.90;;;;;;5031298;28;20186;-81
2021/03/26 12:01:03;;;;;;;0.20;0.20;;;19.10;99.90;;;;;;5035049;28;20990;-80
2021/03/26 12:03:59;;;;;;;0.60;0.57;;;19.20;99.90;;;;;;5038261;28;20272;-81
2021/03/26 12:06:39;;;;;;;0.30;0.30;;;19.20;99.90;;;;;;5040010;28;20177;-81
2021/03/26 12:09:08;;;;;;;1.67;0.67;;;19.50;99.90;;;;;;5045688;28;20236;-80
2021/03/26 12:11:43;;;;;;;0.40;0.40;;;19.60;99.90;;;;;;5045977;28;20241;-81
2021/03/26 12:14:24;;;;;;;0.30;0.30;;;19.50;99.90;;;;;;5051093;28;20282;-80
2021/03/26 12:17:16;;;;;;;0.33;0.33;;;18.80;99.90;;;;;;5051101;28;20190;-79
2021/03/26 12:19:42;;;;;;;1.10;1.00;;;18.80;99.90;;;;;;5047134;28;20202;-80
2021/03/26 12:22:20;;;;;;;1.00;0.90;;;18.70;99.90;;;;;;5044471;28;21515;-81
2021/03/26 12:25:01;;;;;;;0.53;0.50;;;18.70;99.90;;;;;;5066144;28;20214;-80
2021/03/26 12:27:35;;;;;;;0.30;0.30;;;18.90;99.90;;;;;;5043535;28;20196;-80
2021/03/26 12:30:06;;;;;;;0.30;0.30;;;19.10;99.90;;;;;;5045850;28;20754;-80
2021/03/26 12:33:00;;;;;;;0.53;0.53;;;19.30;99.90;;;;;;5035912;28;20193;-80
2021/03/26 12:35:44;;;;;;;0.20;0.20;;;19.20;99.90;;;;;;5040235;28;20262;-80
2021/03/26 12:38:20;;;;;;;0.20;0.20;;;18.80;99.90;;;;;;5049097;28;20304;-79
2021/03/26 12:40:56;;;;;;;0.27;0.27;;;18.70;99.90;;;;;;5052847;28;20212;-80
2021/03/26 12:43:26;;;;;;;0.40;0.40;;;19.10;99.90;;;;;;5046848;28;20317;-81
2021/03/26 12:46:10;;;;;;;1.03;0.60;;;19.30;99.90;;;;;;5047282;28;20183;-81
2021/03/26 12:48:40;;;;;;;0.30;0.30;;;19.30;99.90;;;;;;5052359;28;20262;-81
2021/03/26 12:51:28;;;;;;;1.80;0.60;;;19.30;99.90;;;;;;5057099;28;20198;-81
2021/03/26 12:54:35;;;;;;;1.30;0.77;;;19.20;99.90;;;;;;5055013;28;20197;-81
2021/03/26 12:57:01;;;;;;;1.50;0.83;;;19.50;99.90;;;;;;5045772;28;20194;-80
2021/03/26 12:59:39;;;;;;;0.60;0.60;;;19.60;99.90;;;;;;5051289;28;20686;-81
2021/03/26 13:02:11;;;;;;;2.20;0.80;;;19.80;99.90;;;;;;5039803;28;20210;-81
2021/03/26 13:05:18;;;;;;;0.30;0.30;;;20.00;99.90;;;;;;5048808;28;20188;-80
2021/03/26 13:07:56;;;;;;;1.00;0.80;;;20.00;99.90;;;;;;5048061;28;20210;-81
2021/03/26 13:10:21;;;;;;;2.03;0.93;;;19.50;99.90;;;;;;5055497;28;20588;-81
2021/03/26 13:12:49;;;;;;;0.20;0.20;;;19.30;99.90;;;;;;5055162;28;20188;-81
2021/03/26 13:15:16;;;;;;;1.17;0.67;;;19.20;99.90;;;;;;5043287;28;20190;-81
2021/03/26 13:17:42;;;;;;;0.43;0.43;;;19.00;99.90;;;;;;5043307;28;20190;-81
2021/03/26 13:20:17;;;;;;;0.57;0.57;;;19.10;99.90;;;;;;5045192;28;20280;-81
2021/03/26 13:22:47;;;;;;;0.47;0.30;;;19.20;99.90;;;;;;5043451;28;20213;-80
2021/03/26 13:25:30;;;;;;;0.53;0.53;;;18.90;99.90;;;;;;5048514;28;20182;-80
2021/03/26 13:27:56;;;;;;;1.83;1.03;;;18.70;99.90;;;;;;5039322;28;20190;-80
2021/03/26 13:30:42;;;;;;;0.50;0.30;;;18.60;99.90;;;;;;5037215;28;20616;-81
2021/03/26 13:33:10;;;;;;;1.97;0.77;;;18.50;99.90;;;;;;5047142;28;20583;-81
2021/03/26 13:35:42;;;;;;;0.30;0.30;;;18.80;99.90;;;;;;5045213;28;20191;-81
2021/03/26 13:38:10;;;;;;;0.57;0.50;;;19.20;99.90;;;;;;5040249;28;20190;-81
2021/03/26 13:40:45;;;;;;;0.23;0.23;;;19.30;99.90;;;;;;5053406;28;20586;-82
2021/03/26 13:43:32;;;;;;;0.33;0.33;;;19.30;99.90;;;;;;5052035;28;20640;-81
2021/03/26 13:46:03;;;;;;;0.33;0.33;;;19.50;99.90;;;;;;5054189;28;20202;-81
2021/03/26 13:48:37;;;;;;;0.60;0.60;;;19.50;99.90;;;;;;5036479;28;20186;-81
2021/03/26 13:51:08;;;;;;;1.33;0.60;;;19.50;99.90;;;;;;5037679;28;20199;-80
2021/03/26 13:53:56;;;;;;;0.73;0.67;;;19.20;99.90;;;;;;5039036;28;20199;-81